<?xml version="1.0" encoding="UTF-8" standalone="no" ?>
<gpx xmlns="http://www.topografix.com/GPX/1/1" xmlns:xsi="http://www.w3.org/2001/XMLSchema-instance" xsi:schemaLocation="http://www.topografix.com/GPX/1/1 http://www.topografix.com/GPX/1/1/gpx.xsd" version="1.1" creator="VisuGPX - https://www.visugpx.com">
  <metadata>
    <name>BoissièreEvre_Montrevault18km</name>
  </metadata>
  <trk>
    <name><![CDATA[trézenne 2017-7311642]]></name>
    <extensions>
      <line xmlns="http://www.topografix.com/GPX/gpx_style/0/2">
        <color>00FF00</color>
        <width>4</width>
      </line>
    </extensions>
    <trkseg>
      <trkpt lat="47.30108" lon="-1.07965">
        <ele>77</ele>
        <time>2024-05-14T11:37:01Z</time>
      </trkpt>
      <trkpt lat="47.30103" lon="-1.07939">
        <ele>77</ele>
        <time>2024-05-14T11:37:25Z</time>
      </trkpt>
      <trkpt lat="47.30084" lon="-1.07925">
        <ele>77</ele>
        <time>2024-05-14T11:37:54Z</time>
      </trkpt>
      <trkpt lat="47.30064" lon="-1.07917">
        <ele>77</ele>
        <time>2024-05-14T11:38:21Z</time>
      </trkpt>
      <trkpt lat="47.30059" lon="-1.07912">
        <ele>76</ele>
        <time>2024-05-14T11:38:30Z</time>
      </trkpt>
      <trkpt lat="47.30052" lon="-1.07895">
        <ele>76</ele>
        <time>2024-05-14T11:38:48Z</time>
      </trkpt>
      <trkpt lat="47.30047" lon="-1.07864">
        <ele>76</ele>
        <time>2024-05-14T11:39:16Z</time>
      </trkpt>
      <trkpt lat="47.30017" lon="-1.07784">
        <ele>75</ele>
        <time>2024-05-14T11:40:39Z</time>
      </trkpt>
      <trkpt lat="47.30017" lon="-1.07762">
        <ele>75</ele>
        <time>2024-05-14T11:40:59Z</time>
      </trkpt>
      <trkpt lat="47.30031" lon="-1.07754">
        <ele>75</ele>
        <time>2024-05-14T11:41:19Z</time>
      </trkpt>
      <trkpt lat="47.3003" lon="-1.0775">
        <ele>75</ele>
        <time>2024-05-14T11:41:23Z</time>
      </trkpt>
      <trkpt lat="47.3006" lon="-1.07753">
        <ele>75</ele>
        <time>2024-05-14T11:42:03Z</time>
      </trkpt>
      <trkpt lat="47.30088" lon="-1.07764">
        <ele>75</ele>
        <time>2024-05-14T11:42:42Z</time>
      </trkpt>
      <trkpt lat="47.30141" lon="-1.07771">
        <ele>77</ele>
        <time>2024-05-14T11:43:53Z</time>
      </trkpt>
      <trkpt lat="47.30157" lon="-1.07776">
        <ele>77</ele>
        <time>2024-05-14T11:44:15Z</time>
      </trkpt>
      <trkpt lat="47.30181" lon="-1.0778">
        <ele>77</ele>
        <time>2024-05-14T11:44:47Z</time>
      </trkpt>
      <trkpt lat="47.30187" lon="-1.07779">
        <ele>77</ele>
        <time>2024-05-14T11:44:55Z</time>
      </trkpt>
      <trkpt lat="47.30229" lon="-1.07787">
        <ele>78</ele>
        <time>2024-05-14T11:45:51Z</time>
      </trkpt>
      <trkpt lat="47.30244" lon="-1.07781">
        <ele>77</ele>
        <time>2024-05-14T11:46:12Z</time>
      </trkpt>
      <trkpt lat="47.30281" lon="-1.07774">
        <ele>78</ele>
        <time>2024-05-14T11:47:02Z</time>
      </trkpt>
      <trkpt lat="47.30304" lon="-1.07767">
        <ele>78</ele>
        <time>2024-05-14T11:47:33Z</time>
      </trkpt>
      <trkpt lat="47.30367" lon="-1.07734">
        <ele>79</ele>
        <time>2024-05-14T11:49:02Z</time>
      </trkpt>
      <trkpt lat="47.30384" lon="-1.07732">
        <ele>79</ele>
        <time>2024-05-14T11:49:25Z</time>
      </trkpt>
      <trkpt lat="47.30407" lon="-1.07733">
        <ele>80</ele>
        <time>2024-05-14T11:49:56Z</time>
      </trkpt>
      <trkpt lat="47.3042" lon="-1.07727">
        <ele>80</ele>
        <time>2024-05-14T11:50:14Z</time>
      </trkpt>
      <trkpt lat="47.30443" lon="-1.07725">
        <ele>80</ele>
        <time>2024-05-14T11:50:45Z</time>
      </trkpt>
      <trkpt lat="47.30527" lon="-1.07701">
        <ele>79</ele>
        <time>2024-05-14T11:52:39Z</time>
      </trkpt>
      <trkpt lat="47.30566" lon="-1.07695">
        <ele>79</ele>
        <time>2024-05-14T11:53:31Z</time>
      </trkpt>
      <trkpt lat="47.30589" lon="-1.07694">
        <ele>78</ele>
        <time>2024-05-14T11:54:02Z</time>
      </trkpt>
      <trkpt lat="47.30603" lon="-1.07696">
        <ele>78</ele>
        <time>2024-05-14T11:54:21Z</time>
      </trkpt>
      <trkpt lat="47.30628" lon="-1.07705">
        <ele>79</ele>
        <time>2024-05-14T11:54:55Z</time>
      </trkpt>
      <trkpt lat="47.30666" lon="-1.07714">
        <ele>79</ele>
        <time>2024-05-14T11:55:46Z</time>
      </trkpt>
      <trkpt lat="47.30703" lon="-1.07729">
        <ele>80</ele>
        <time>2024-05-14T11:56:38Z</time>
      </trkpt>
      <trkpt lat="47.30748" lon="-1.07741">
        <ele>80</ele>
        <time>2024-05-14T11:57:39Z</time>
      </trkpt>
      <trkpt lat="47.30789" lon="-1.07758">
        <ele>80</ele>
        <time>2024-05-14T11:58:36Z</time>
      </trkpt>
      <trkpt lat="47.30803" lon="-1.0776">
        <ele>80</ele>
        <time>2024-05-14T11:58:54Z</time>
      </trkpt>
      <trkpt lat="47.3085" lon="-1.07753">
        <ele>79</ele>
        <time>2024-05-14T11:59:57Z</time>
      </trkpt>
      <trkpt lat="47.30889" lon="-1.07744">
        <ele>79</ele>
        <time>2024-05-14T12:00:50Z</time>
      </trkpt>
      <trkpt lat="47.30906" lon="-1.07734">
        <ele>78</ele>
        <time>2024-05-14T12:01:14Z</time>
      </trkpt>
      <trkpt lat="47.30924" lon="-1.07718">
        <ele>78</ele>
        <time>2024-05-14T12:01:42Z</time>
      </trkpt>
      <trkpt lat="47.3094" lon="-1.07709">
        <ele>78</ele>
        <time>2024-05-14T12:02:05Z</time>
      </trkpt>
      <trkpt lat="47.30955" lon="-1.07713">
        <ele>79</ele>
        <time>2024-05-14T12:02:26Z</time>
      </trkpt>
      <trkpt lat="47.30964" lon="-1.07707">
        <ele>79</ele>
        <time>2024-05-14T12:02:39Z</time>
      </trkpt>
      <trkpt lat="47.30966" lon="-1.07696">
        <ele>79</ele>
        <time>2024-05-14T12:02:49Z</time>
      </trkpt>
      <trkpt lat="47.30962" lon="-1.07687">
        <ele>79</ele>
        <time>2024-05-14T12:02:59Z</time>
      </trkpt>
      <trkpt lat="47.30927" lon="-1.07649">
        <ele>77</ele>
        <time>2024-05-14T12:03:57Z</time>
      </trkpt>
      <trkpt lat="47.30902" lon="-1.07631">
        <ele>77</ele>
        <time>2024-05-14T12:04:34Z</time>
      </trkpt>
      <trkpt lat="47.30887" lon="-1.07627">
        <ele>77</ele>
        <time>2024-05-14T12:04:54Z</time>
      </trkpt>
      <trkpt lat="47.30874" lon="-1.07629">
        <ele>76</ele>
        <time>2024-05-14T12:05:12Z</time>
      </trkpt>
      <trkpt lat="47.3087" lon="-1.07642">
        <ele>76</ele>
        <time>2024-05-14T12:05:25Z</time>
      </trkpt>
      <trkpt lat="47.3086" lon="-1.07652">
        <ele>75</ele>
        <time>2024-05-14T12:05:41Z</time>
      </trkpt>
      <trkpt lat="47.30834" lon="-1.07655">
        <ele>74</ele>
        <time>2024-05-14T12:06:16Z</time>
      </trkpt>
      <trkpt lat="47.30806" lon="-1.07649">
        <ele>74</ele>
        <time>2024-05-14T12:06:53Z</time>
      </trkpt>
      <trkpt lat="47.30763" lon="-1.07622">
        <ele>75</ele>
        <time>2024-05-14T12:07:56Z</time>
      </trkpt>
      <trkpt lat="47.30743" lon="-1.07614">
        <ele>74</ele>
        <time>2024-05-14T12:08:23Z</time>
      </trkpt>
      <trkpt lat="47.3072" lon="-1.07601">
        <ele>73</ele>
        <time>2024-05-14T12:08:56Z</time>
      </trkpt>
      <trkpt lat="47.30699" lon="-1.07583">
        <ele>71</ele>
        <time>2024-05-14T12:09:29Z</time>
      </trkpt>
      <trkpt lat="47.3069" lon="-1.0758">
        <ele>71</ele>
        <time>2024-05-14T12:09:41Z</time>
      </trkpt>
      <trkpt lat="47.30673" lon="-1.07566">
        <ele>71</ele>
        <time>2024-05-14T12:10:07Z</time>
      </trkpt>
      <trkpt lat="47.30654" lon="-1.07557">
        <ele>70</ele>
        <time>2024-05-14T12:10:34Z</time>
      </trkpt>
      <trkpt lat="47.30646" lon="-1.07549">
        <ele>70</ele>
        <time>2024-05-14T12:10:47Z</time>
      </trkpt>
      <trkpt lat="47.30646" lon="-1.07544">
        <ele>70</ele>
        <time>2024-05-14T12:10:51Z</time>
      </trkpt>
      <trkpt lat="47.30634" lon="-1.07523">
        <ele>69</ele>
        <time>2024-05-14T12:11:16Z</time>
      </trkpt>
      <trkpt lat="47.30624" lon="-1.07513">
        <ele>68</ele>
        <time>2024-05-14T12:11:32Z</time>
      </trkpt>
      <trkpt lat="47.30607" lon="-1.07482">
        <ele>67</ele>
        <time>2024-05-14T12:12:08Z</time>
      </trkpt>
      <trkpt lat="47.30598" lon="-1.07472">
        <ele>67</ele>
        <time>2024-05-14T12:12:23Z</time>
      </trkpt>
      <trkpt lat="47.30589" lon="-1.07465">
        <ele>67</ele>
        <time>2024-05-14T12:12:37Z</time>
      </trkpt>
      <trkpt lat="47.30575" lon="-1.07459">
        <ele>66</ele>
        <time>2024-05-14T12:12:56Z</time>
      </trkpt>
      <trkpt lat="47.30568" lon="-1.07461">
        <ele>65</ele>
        <time>2024-05-14T12:13:06Z</time>
      </trkpt>
      <trkpt lat="47.30554" lon="-1.0746">
        <ele>64</ele>
        <time>2024-05-14T12:13:24Z</time>
      </trkpt>
      <trkpt lat="47.30493" lon="-1.07442">
        <ele>59</ele>
        <time>2024-05-14T12:14:47Z</time>
      </trkpt>
      <trkpt lat="47.30485" lon="-1.07437">
        <ele>58</ele>
        <time>2024-05-14T12:14:59Z</time>
      </trkpt>
      <trkpt lat="47.30466" lon="-1.07408">
        <ele>57</ele>
        <time>2024-05-14T12:15:35Z</time>
      </trkpt>
      <trkpt lat="47.30465" lon="-1.07402">
        <ele>57</ele>
        <time>2024-05-14T12:15:41Z</time>
      </trkpt>
      <trkpt lat="47.30445" lon="-1.07378">
        <ele>57</ele>
        <time>2024-05-14T12:16:16Z</time>
      </trkpt>
      <trkpt lat="47.3043" lon="-1.07369">
        <ele>56</ele>
        <time>2024-05-14T12:16:37Z</time>
      </trkpt>
      <trkpt lat="47.30421" lon="-1.07369">
        <ele>55</ele>
        <time>2024-05-14T12:16:49Z</time>
      </trkpt>
      <trkpt lat="47.30404" lon="-1.07379">
        <ele>52</ele>
        <time>2024-05-14T12:17:14Z</time>
      </trkpt>
      <trkpt lat="47.30377" lon="-1.07379">
        <ele>49</ele>
        <time>2024-05-14T12:17:50Z</time>
      </trkpt>
      <trkpt lat="47.30349" lon="-1.07386">
        <ele>46</ele>
        <time>2024-05-14T12:18:27Z</time>
      </trkpt>
      <trkpt lat="47.30327" lon="-1.07401">
        <ele>44</ele>
        <time>2024-05-14T12:19:00Z</time>
      </trkpt>
      <trkpt lat="47.30315" lon="-1.07402">
        <ele>43</ele>
        <time>2024-05-14T12:19:16Z</time>
      </trkpt>
      <trkpt lat="47.30313" lon="-1.07404">
        <ele>43</ele>
        <time>2024-05-14T12:19:19Z</time>
      </trkpt>
      <trkpt lat="47.30307" lon="-1.07403">
        <ele>42</ele>
        <time>2024-05-14T12:19:27Z</time>
      </trkpt>
      <trkpt lat="47.30306" lon="-1.07398">
        <ele>42</ele>
        <time>2024-05-14T12:19:32Z</time>
      </trkpt>
      <trkpt lat="47.30291" lon="-1.07395">
        <ele>40</ele>
        <time>2024-05-14T12:19:52Z</time>
      </trkpt>
      <trkpt lat="47.30284" lon="-1.07389">
        <ele>39</ele>
        <time>2024-05-14T12:20:03Z</time>
      </trkpt>
      <trkpt lat="47.30292" lon="-1.07381">
        <ele>39</ele>
        <time>2024-05-14T12:20:16Z</time>
      </trkpt>
      <trkpt lat="47.30298" lon="-1.0738">
        <ele>40</ele>
        <time>2024-05-14T12:20:24Z</time>
      </trkpt>
      <trkpt lat="47.30311" lon="-1.07366">
        <ele>41</ele>
        <time>2024-05-14T12:20:45Z</time>
      </trkpt>
      <trkpt lat="47.30315" lon="-1.07365">
        <ele>41</ele>
        <time>2024-05-14T12:20:51Z</time>
      </trkpt>
      <trkpt lat="47.30316" lon="-1.0736">
        <ele>41</ele>
        <time>2024-05-14T12:20:55Z</time>
      </trkpt>
      <trkpt lat="47.30325" lon="-1.07355">
        <ele>43</ele>
        <time>2024-05-14T12:21:08Z</time>
      </trkpt>
      <trkpt lat="47.30333" lon="-1.07345">
        <ele>44</ele>
        <time>2024-05-14T12:21:22Z</time>
      </trkpt>
      <trkpt lat="47.30345" lon="-1.07342">
        <ele>46</ele>
        <time>2024-05-14T12:21:39Z</time>
      </trkpt>
      <trkpt lat="47.30351" lon="-1.07332">
        <ele>46</ele>
        <time>2024-05-14T12:21:51Z</time>
      </trkpt>
      <trkpt lat="47.30351" lon="-1.07325">
        <ele>46</ele>
        <time>2024-05-14T12:21:57Z</time>
      </trkpt>
      <trkpt lat="47.30359" lon="-1.07316">
        <ele>47</ele>
        <time>2024-05-14T12:22:10Z</time>
      </trkpt>
      <trkpt lat="47.30361" lon="-1.07309">
        <ele>48</ele>
        <time>2024-05-14T12:22:17Z</time>
      </trkpt>
      <trkpt lat="47.3036" lon="-1.07306">
        <ele>47</ele>
        <time>2024-05-14T12:22:20Z</time>
      </trkpt>
      <trkpt lat="47.30354" lon="-1.07304">
        <ele>46</ele>
        <time>2024-05-14T12:22:28Z</time>
      </trkpt>
      <trkpt lat="47.30353" lon="-1.07298">
        <ele>46</ele>
        <time>2024-05-14T12:22:34Z</time>
      </trkpt>
      <trkpt lat="47.30356" lon="-1.073">
        <ele>46</ele>
        <time>2024-05-14T12:22:38Z</time>
      </trkpt>
      <trkpt lat="47.3036" lon="-1.07299">
        <ele>47</ele>
        <time>2024-05-14T12:22:44Z</time>
      </trkpt>
      <trkpt lat="47.30372" lon="-1.07293">
        <ele>50</ele>
        <time>2024-05-14T12:23:01Z</time>
      </trkpt>
      <trkpt lat="47.30372" lon="-1.07295">
        <ele>50</ele>
        <time>2024-05-14T12:23:03Z</time>
      </trkpt>
      <trkpt lat="47.30385" lon="-1.07299">
        <ele>53</ele>
        <time>2024-05-14T12:23:20Z</time>
      </trkpt>
      <trkpt lat="47.30374" lon="-1.07293">
        <ele>50</ele>
        <time>2024-05-14T12:23:36Z</time>
      </trkpt>
      <trkpt lat="47.30366" lon="-1.07295">
        <ele>49</ele>
        <time>2024-05-14T12:23:47Z</time>
      </trkpt>
      <trkpt lat="47.30364" lon="-1.07292">
        <ele>48</ele>
        <time>2024-05-14T12:23:51Z</time>
      </trkpt>
      <trkpt lat="47.30367" lon="-1.07297">
        <ele>49</ele>
        <time>2024-05-14T12:23:57Z</time>
      </trkpt>
      <trkpt lat="47.30359" lon="-1.07299">
        <ele>47</ele>
        <time>2024-05-14T12:24:07Z</time>
      </trkpt>
      <trkpt lat="47.30354" lon="-1.07296">
        <ele>46</ele>
        <time>2024-05-14T12:24:15Z</time>
      </trkpt>
      <trkpt lat="47.30357" lon="-1.07302">
        <ele>47</ele>
        <time>2024-05-14T12:24:21Z</time>
      </trkpt>
      <trkpt lat="47.30367" lon="-1.07297">
        <ele>49</ele>
        <time>2024-05-14T12:24:35Z</time>
      </trkpt>
      <trkpt lat="47.30371" lon="-1.07292">
        <ele>50</ele>
        <time>2024-05-14T12:24:42Z</time>
      </trkpt>
      <trkpt lat="47.30376" lon="-1.07297">
        <ele>51</ele>
        <time>2024-05-14T12:24:51Z</time>
      </trkpt>
      <trkpt lat="47.30392" lon="-1.07302">
        <ele>54</ele>
        <time>2024-05-14T12:25:12Z</time>
      </trkpt>
      <trkpt lat="47.30413" lon="-1.07302">
        <ele>59</ele>
        <time>2024-05-14T12:25:40Z</time>
      </trkpt>
      <trkpt lat="47.30434" lon="-1.07297">
        <ele>63</ele>
        <time>2024-05-14T12:26:09Z</time>
      </trkpt>
      <trkpt lat="47.30456" lon="-1.07296">
        <ele>67</ele>
        <time>2024-05-14T12:26:38Z</time>
      </trkpt>
      <trkpt lat="47.30463" lon="-1.07289">
        <ele>69</ele>
        <time>2024-05-14T12:26:49Z</time>
      </trkpt>
      <trkpt lat="47.30474" lon="-1.07252">
        <ele>75</ele>
        <time>2024-05-14T12:27:26Z</time>
      </trkpt>
      <trkpt lat="47.30497" lon="-1.07155">
        <ele>76</ele>
        <time>2024-05-14T12:28:59Z</time>
      </trkpt>
      <trkpt lat="47.305" lon="-1.07151">
        <ele>76</ele>
        <time>2024-05-14T12:29:04Z</time>
      </trkpt>
      <trkpt lat="47.30549" lon="-1.07158">
        <ele>78</ele>
        <time>2024-05-14T12:30:10Z</time>
      </trkpt>
      <trkpt lat="47.30562" lon="-1.07163">
        <ele>79</ele>
        <time>2024-05-14T12:30:28Z</time>
      </trkpt>
      <trkpt lat="47.30566" lon="-1.07162">
        <ele>79</ele>
        <time>2024-05-14T12:30:33Z</time>
      </trkpt>
      <trkpt lat="47.30687" lon="-1.07201">
        <ele>82</ele>
        <time>2024-05-14T12:33:19Z</time>
      </trkpt>
      <trkpt lat="47.30741" lon="-1.07211">
        <ele>83</ele>
        <time>2024-05-14T12:34:31Z</time>
      </trkpt>
      <trkpt lat="47.30763" lon="-1.07222">
        <ele>84</ele>
        <time>2024-05-14T12:35:02Z</time>
      </trkpt>
      <trkpt lat="47.30777" lon="-1.07225">
        <ele>84</ele>
        <time>2024-05-14T12:35:21Z</time>
      </trkpt>
      <trkpt lat="47.30804" lon="-1.07225">
        <ele>84</ele>
        <time>2024-05-14T12:35:57Z</time>
      </trkpt>
      <trkpt lat="47.30812" lon="-1.07228">
        <ele>85</ele>
        <time>2024-05-14T12:36:08Z</time>
      </trkpt>
      <trkpt lat="47.30863" lon="-1.07232">
        <ele>86</ele>
        <time>2024-05-14T12:37:16Z</time>
      </trkpt>
      <trkpt lat="47.30918" lon="-1.07224">
        <ele>88</ele>
        <time>2024-05-14T12:38:30Z</time>
      </trkpt>
      <trkpt lat="47.3094" lon="-1.07223">
        <ele>88</ele>
        <time>2024-05-14T12:39:00Z</time>
      </trkpt>
      <trkpt lat="47.30981" lon="-1.07208">
        <ele>89</ele>
        <time>2024-05-14T12:39:56Z</time>
      </trkpt>
      <trkpt lat="47.30996" lon="-1.07195">
        <ele>89</ele>
        <time>2024-05-14T12:40:19Z</time>
      </trkpt>
      <trkpt lat="47.31041" lon="-1.07107">
        <ele>87</ele>
        <time>2024-05-14T12:41:59Z</time>
      </trkpt>
      <trkpt lat="47.31069" lon="-1.07044">
        <ele>86</ele>
        <time>2024-05-14T12:43:07Z</time>
      </trkpt>
      <trkpt lat="47.31084" lon="-1.0702">
        <ele>86</ele>
        <time>2024-05-14T12:43:37Z</time>
      </trkpt>
      <trkpt lat="47.311" lon="-1.07007">
        <ele>86</ele>
        <time>2024-05-14T12:44:01Z</time>
      </trkpt>
      <trkpt lat="47.31136" lon="-1.06971">
        <ele>87</ele>
        <time>2024-05-14T12:44:59Z</time>
      </trkpt>
      <trkpt lat="47.31149" lon="-1.06963">
        <ele>87</ele>
        <time>2024-05-14T12:45:18Z</time>
      </trkpt>
      <trkpt lat="47.31159" lon="-1.06961">
        <ele>87</ele>
        <time>2024-05-14T12:45:31Z</time>
      </trkpt>
      <trkpt lat="47.31168" lon="-1.06969">
        <ele>88</ele>
        <time>2024-05-14T12:45:45Z</time>
      </trkpt>
      <trkpt lat="47.31179" lon="-1.06986">
        <ele>88</ele>
        <time>2024-05-14T12:46:07Z</time>
      </trkpt>
      <trkpt lat="47.31197" lon="-1.0699">
        <ele>89</ele>
        <time>2024-05-14T12:46:31Z</time>
      </trkpt>
      <trkpt lat="47.31214" lon="-1.06987">
        <ele>89</ele>
        <time>2024-05-14T12:46:54Z</time>
      </trkpt>
      <trkpt lat="47.31219" lon="-1.06993">
        <ele>89</ele>
        <time>2024-05-14T12:47:02Z</time>
      </trkpt>
      <trkpt lat="47.31225" lon="-1.07012">
        <ele>90</ele>
        <time>2024-05-14T12:47:21Z</time>
      </trkpt>
      <trkpt lat="47.31236" lon="-1.07084">
        <ele>91</ele>
        <time>2024-05-14T12:48:28Z</time>
      </trkpt>
      <trkpt lat="47.31252" lon="-1.07151">
        <ele>93</ele>
        <time>2024-05-14T12:49:32Z</time>
      </trkpt>
      <trkpt lat="47.31269" lon="-1.07192">
        <ele>94</ele>
        <time>2024-05-14T12:50:16Z</time>
      </trkpt>
      <trkpt lat="47.31297" lon="-1.07295">
        <ele>97</ele>
        <time>2024-05-14T12:51:56Z</time>
      </trkpt>
      <trkpt lat="47.31317" lon="-1.07346">
        <ele>97</ele>
        <time>2024-05-14T12:52:49Z</time>
      </trkpt>
      <trkpt lat="47.3135" lon="-1.0745">
        <ele>96</ele>
        <time>2024-05-14T12:54:33Z</time>
      </trkpt>
      <trkpt lat="47.31351" lon="-1.07488">
        <ele>95</ele>
        <time>2024-05-14T12:55:08Z</time>
      </trkpt>
      <trkpt lat="47.31362" lon="-1.07529">
        <ele>95</ele>
        <time>2024-05-14T12:55:48Z</time>
      </trkpt>
      <trkpt lat="47.31401" lon="-1.07641">
        <ele>96</ele>
        <time>2024-05-14T12:57:42Z</time>
      </trkpt>
      <trkpt lat="47.3143" lon="-1.07691">
        <ele>96</ele>
        <time>2024-05-14T12:58:41Z</time>
      </trkpt>
      <trkpt lat="47.31462" lon="-1.07764">
        <ele>96</ele>
        <time>2024-05-14T13:00:00Z</time>
      </trkpt>
      <trkpt lat="47.31463" lon="-1.07771">
        <ele>96</ele>
        <time>2024-05-14T13:00:06Z</time>
      </trkpt>
      <trkpt lat="47.31453" lon="-1.07788">
        <ele>96</ele>
        <time>2024-05-14T13:00:27Z</time>
      </trkpt>
      <trkpt lat="47.31454" lon="-1.07803">
        <ele>96</ele>
        <time>2024-05-14T13:00:40Z</time>
      </trkpt>
      <trkpt lat="47.31398" lon="-1.07902">
        <ele>95</ele>
        <time>2024-05-14T13:02:37Z</time>
      </trkpt>
      <trkpt lat="47.3139" lon="-1.07922">
        <ele>95</ele>
        <time>2024-05-14T13:02:58Z</time>
      </trkpt>
      <trkpt lat="47.31388" lon="-1.07938">
        <ele>95</ele>
        <time>2024-05-14T13:03:13Z</time>
      </trkpt>
      <trkpt lat="47.31394" lon="-1.0795">
        <ele>94</ele>
        <time>2024-05-14T13:03:26Z</time>
      </trkpt>
      <trkpt lat="47.31462" lon="-1.08005">
        <ele>96</ele>
        <time>2024-05-14T13:05:10Z</time>
      </trkpt>
      <trkpt lat="47.31511" lon="-1.08088">
        <ele>98</ele>
        <time>2024-05-14T13:06:49Z</time>
      </trkpt>
      <trkpt lat="47.31537" lon="-1.08114">
        <ele>98</ele>
        <time>2024-05-14T13:07:31Z</time>
      </trkpt>
      <trkpt lat="47.31569" lon="-1.08136">
        <ele>98</ele>
        <time>2024-05-14T13:08:18Z</time>
      </trkpt>
      <trkpt lat="47.31594" lon="-1.08158">
        <ele>98</ele>
        <time>2024-05-14T13:08:57Z</time>
      </trkpt>
      <trkpt lat="47.31597" lon="-1.08164">
        <ele>98</ele>
        <time>2024-05-14T13:09:04Z</time>
      </trkpt>
      <trkpt lat="47.31602" lon="-1.08161">
        <ele>97</ele>
        <time>2024-05-14T13:09:11Z</time>
      </trkpt>
      <trkpt lat="47.31572" lon="-1.08191">
        <ele>98</ele>
        <time>2024-05-14T13:09:59Z</time>
      </trkpt>
      <trkpt lat="47.31566" lon="-1.08208">
        <ele>99</ele>
        <time>2024-05-14T13:10:17Z</time>
      </trkpt>
      <trkpt lat="47.31563" lon="-1.08301">
        <ele>101</ele>
        <time>2024-05-14T13:11:41Z</time>
      </trkpt>
      <trkpt lat="47.31565" lon="-1.08354">
        <ele>102</ele>
        <time>2024-05-14T13:12:29Z</time>
      </trkpt>
      <trkpt lat="47.3157" lon="-1.08411">
        <ele>104</ele>
        <time>2024-05-14T13:13:21Z</time>
      </trkpt>
      <trkpt lat="47.31574" lon="-1.08414">
        <ele>105</ele>
        <time>2024-05-14T13:13:27Z</time>
      </trkpt>
      <trkpt lat="47.31576" lon="-1.08421">
        <ele>105</ele>
        <time>2024-05-14T13:13:34Z</time>
      </trkpt>
      <trkpt lat="47.3158" lon="-1.08466">
        <ele>106</ele>
        <time>2024-05-14T13:14:15Z</time>
      </trkpt>
      <trkpt lat="47.316" lon="-1.08499">
        <ele>106</ele>
        <time>2024-05-14T13:14:55Z</time>
      </trkpt>
      <trkpt lat="47.31609" lon="-1.08526">
        <ele>105</ele>
        <time>2024-05-14T13:15:22Z</time>
      </trkpt>
      <trkpt lat="47.3161" lon="-1.08536">
        <ele>105</ele>
        <time>2024-05-14T13:15:31Z</time>
      </trkpt>
      <trkpt lat="47.31593" lon="-1.08544">
        <ele>106</ele>
        <time>2024-05-14T13:15:55Z</time>
      </trkpt>
      <trkpt lat="47.31589" lon="-1.08553">
        <ele>105</ele>
        <time>2024-05-14T13:16:05Z</time>
      </trkpt>
      <trkpt lat="47.31592" lon="-1.08568">
        <ele>105</ele>
        <time>2024-05-14T13:16:19Z</time>
      </trkpt>
      <trkpt lat="47.31592" lon="-1.08606">
        <ele>104</ele>
        <time>2024-05-14T13:16:53Z</time>
      </trkpt>
      <trkpt lat="47.31599" lon="-1.08649">
        <ele>103</ele>
        <time>2024-05-14T13:17:33Z</time>
      </trkpt>
      <trkpt lat="47.31603" lon="-1.08661">
        <ele>102</ele>
        <time>2024-05-14T13:17:45Z</time>
      </trkpt>
      <trkpt lat="47.31607" lon="-1.08717">
        <ele>101</ele>
        <time>2024-05-14T13:18:36Z</time>
      </trkpt>
      <trkpt lat="47.31616" lon="-1.08755">
        <ele>101</ele>
        <time>2024-05-14T13:19:13Z</time>
      </trkpt>
      <trkpt lat="47.31618" lon="-1.08778">
        <ele>100</ele>
        <time>2024-05-14T13:19:34Z</time>
      </trkpt>
      <trkpt lat="47.31617" lon="-1.08806">
        <ele>100</ele>
        <time>2024-05-14T13:19:59Z</time>
      </trkpt>
      <trkpt lat="47.31627" lon="-1.08901">
        <ele>99</ele>
        <time>2024-05-14T13:21:26Z</time>
      </trkpt>
      <trkpt lat="47.31634" lon="-1.08924">
        <ele>99</ele>
        <time>2024-05-14T13:21:49Z</time>
      </trkpt>
      <trkpt lat="47.31639" lon="-1.08955">
        <ele>99</ele>
        <time>2024-05-14T13:22:18Z</time>
      </trkpt>
      <trkpt lat="47.31644" lon="-1.09009">
        <ele>100</ele>
        <time>2024-05-14T13:23:07Z</time>
      </trkpt>
      <trkpt lat="47.31652" lon="-1.09013">
        <ele>100</ele>
        <time>2024-05-14T13:23:18Z</time>
      </trkpt>
      <trkpt lat="47.31653" lon="-1.09016">
        <ele>100</ele>
        <time>2024-05-14T13:23:21Z</time>
      </trkpt>
      <trkpt lat="47.31655" lon="-1.09102">
        <ele>102</ele>
        <time>2024-05-14T13:24:39Z</time>
      </trkpt>
      <trkpt lat="47.31661" lon="-1.09176">
        <ele>101</ele>
        <time>2024-05-14T13:25:47Z</time>
      </trkpt>
      <trkpt lat="47.31671" lon="-1.09242">
        <ele>102</ele>
        <time>2024-05-14T13:26:48Z</time>
      </trkpt>
      <trkpt lat="47.31672" lon="-1.09301">
        <ele>102</ele>
        <time>2024-05-14T13:27:41Z</time>
      </trkpt>
      <trkpt lat="47.31679" lon="-1.09341">
        <ele>102</ele>
        <time>2024-05-14T13:28:19Z</time>
      </trkpt>
      <trkpt lat="47.3168" lon="-1.09376">
        <ele>101</ele>
        <time>2024-05-14T13:28:50Z</time>
      </trkpt>
      <trkpt lat="47.31692" lon="-1.09438">
        <ele>99</ele>
        <time>2024-05-14T13:29:49Z</time>
      </trkpt>
      <trkpt lat="47.31696" lon="-1.09486">
        <ele>99</ele>
        <time>2024-05-14T13:30:32Z</time>
      </trkpt>
      <trkpt lat="47.31695" lon="-1.09512">
        <ele>98</ele>
        <time>2024-05-14T13:30:56Z</time>
      </trkpt>
      <trkpt lat="47.31688" lon="-1.09531">
        <ele>98</ele>
        <time>2024-05-14T13:31:15Z</time>
      </trkpt>
      <trkpt lat="47.31685" lon="-1.09548">
        <ele>98</ele>
        <time>2024-05-14T13:31:31Z</time>
      </trkpt>
      <trkpt lat="47.31679" lon="-1.0961">
        <ele>98</ele>
        <time>2024-05-14T13:32:28Z</time>
      </trkpt>
      <trkpt lat="47.31681" lon="-1.09645">
        <ele>97</ele>
        <time>2024-05-14T13:33:00Z</time>
      </trkpt>
      <trkpt lat="47.31679" lon="-1.09756">
        <ele>98</ele>
        <time>2024-05-14T13:34:40Z</time>
      </trkpt>
      <trkpt lat="47.31682" lon="-1.09869">
        <ele>97</ele>
        <time>2024-05-14T13:36:23Z</time>
      </trkpt>
      <trkpt lat="47.3168" lon="-1.09931">
        <ele>96</ele>
        <time>2024-05-14T13:37:19Z</time>
      </trkpt>
      <trkpt lat="47.31672" lon="-1.1001">
        <ele>96</ele>
        <time>2024-05-14T13:38:31Z</time>
      </trkpt>
      <trkpt lat="47.31674" lon="-1.10015">
        <ele>96</ele>
        <time>2024-05-14T13:38:36Z</time>
      </trkpt>
      <trkpt lat="47.31674" lon="-1.10034">
        <ele>96</ele>
        <time>2024-05-14T13:38:53Z</time>
      </trkpt>
      <trkpt lat="47.31675" lon="-1.10038">
        <ele>96</ele>
        <time>2024-05-14T13:38:57Z</time>
      </trkpt>
      <trkpt lat="47.31677" lon="-1.10038">
        <ele>96</ele>
        <time>2024-05-14T13:39:00Z</time>
      </trkpt>
      <trkpt lat="47.31642" lon="-1.10057">
        <ele>96</ele>
        <time>2024-05-14T13:39:50Z</time>
      </trkpt>
      <trkpt lat="47.31622" lon="-1.10072">
        <ele>96</ele>
        <time>2024-05-14T13:40:20Z</time>
      </trkpt>
      <trkpt lat="47.31581" lon="-1.10097">
        <ele>95</ele>
        <time>2024-05-14T13:41:19Z</time>
      </trkpt>
      <trkpt lat="47.31572" lon="-1.10099">
        <ele>94</ele>
        <time>2024-05-14T13:41:31Z</time>
      </trkpt>
      <trkpt lat="47.31538" lon="-1.10127">
        <ele>93</ele>
        <time>2024-05-14T13:42:23Z</time>
      </trkpt>
      <trkpt lat="47.31498" lon="-1.10153">
        <ele>93</ele>
        <time>2024-05-14T13:43:21Z</time>
      </trkpt>
      <trkpt lat="47.31473" lon="-1.10165">
        <ele>93</ele>
        <time>2024-05-14T13:43:56Z</time>
      </trkpt>
      <trkpt lat="47.31455" lon="-1.10178">
        <ele>93</ele>
        <time>2024-05-14T13:44:23Z</time>
      </trkpt>
      <trkpt lat="47.31415" lon="-1.10197">
        <ele>91</ele>
        <time>2024-05-14T13:45:19Z</time>
      </trkpt>
      <trkpt lat="47.31399" lon="-1.10208">
        <ele>90</ele>
        <time>2024-05-14T13:45:43Z</time>
      </trkpt>
      <trkpt lat="47.31342" lon="-1.10226">
        <ele>88</ele>
        <time>2024-05-14T13:47:01Z</time>
      </trkpt>
      <trkpt lat="47.31294" lon="-1.10246">
        <ele>87</ele>
        <time>2024-05-14T13:48:07Z</time>
      </trkpt>
      <trkpt lat="47.3124" lon="-1.10264">
        <ele>86</ele>
        <time>2024-05-14T13:49:21Z</time>
      </trkpt>
      <trkpt lat="47.31206" lon="-1.10281">
        <ele>86</ele>
        <time>2024-05-14T13:50:09Z</time>
      </trkpt>
      <trkpt lat="47.31154" lon="-1.1034">
        <ele>86</ele>
        <time>2024-05-14T13:51:36Z</time>
      </trkpt>
      <trkpt lat="47.31132" lon="-1.10371">
        <ele>86</ele>
        <time>2024-05-14T13:52:17Z</time>
      </trkpt>
      <trkpt lat="47.31068" lon="-1.10439">
        <ele>86</ele>
        <time>2024-05-14T13:54:02Z</time>
      </trkpt>
      <trkpt lat="47.31059" lon="-1.10444">
        <ele>86</ele>
        <time>2024-05-14T13:54:15Z</time>
      </trkpt>
      <trkpt lat="47.31052" lon="-1.10445">
        <ele>86</ele>
        <time>2024-05-14T13:54:25Z</time>
      </trkpt>
      <trkpt lat="47.31038" lon="-1.10442">
        <ele>86</ele>
        <time>2024-05-14T13:54:43Z</time>
      </trkpt>
      <trkpt lat="47.31019" lon="-1.10426">
        <ele>86</ele>
        <time>2024-05-14T13:55:13Z</time>
      </trkpt>
      <trkpt lat="47.31012" lon="-1.10418">
        <ele>86</ele>
        <time>2024-05-14T13:55:24Z</time>
      </trkpt>
      <trkpt lat="47.31008" lon="-1.10407">
        <ele>86</ele>
        <time>2024-05-14T13:55:36Z</time>
      </trkpt>
      <trkpt lat="47.30977" lon="-1.10354">
        <ele>87</ele>
        <time>2024-05-14T13:56:39Z</time>
      </trkpt>
      <trkpt lat="47.30953" lon="-1.10344">
        <ele>88</ele>
        <time>2024-05-14T13:57:12Z</time>
      </trkpt>
      <trkpt lat="47.30952" lon="-1.10351">
        <ele>87</ele>
        <time>2024-05-14T13:57:19Z</time>
      </trkpt>
      <trkpt lat="47.30949" lon="-1.10339">
        <ele>88</ele>
        <time>2024-05-14T13:57:30Z</time>
      </trkpt>
      <trkpt lat="47.3095" lon="-1.10343">
        <ele>88</ele>
        <time>2024-05-14T13:57:34Z</time>
      </trkpt>
      <trkpt lat="47.30967" lon="-1.10354">
        <ele>87</ele>
        <time>2024-05-14T13:57:59Z</time>
      </trkpt>
      <trkpt lat="47.30976" lon="-1.10367">
        <ele>87</ele>
        <time>2024-05-14T13:58:16Z</time>
      </trkpt>
      <trkpt lat="47.31" lon="-1.10411">
        <ele>86</ele>
        <time>2024-05-14T13:59:07Z</time>
      </trkpt>
      <trkpt lat="47.31001" lon="-1.10417">
        <ele>86</ele>
        <time>2024-05-14T13:59:13Z</time>
      </trkpt>
      <trkpt lat="47.31001" lon="-1.10415">
        <ele>86</ele>
        <time>2024-05-14T13:59:14Z</time>
      </trkpt>
      <trkpt lat="47.30982" lon="-1.10425">
        <ele>86</ele>
        <time>2024-05-14T13:59:41Z</time>
      </trkpt>
      <trkpt lat="47.30962" lon="-1.10439">
        <ele>87</ele>
        <time>2024-05-14T14:00:11Z</time>
      </trkpt>
      <trkpt lat="47.30952" lon="-1.10456">
        <ele>87</ele>
        <time>2024-05-14T14:00:31Z</time>
      </trkpt>
      <trkpt lat="47.30945" lon="-1.1046">
        <ele>87</ele>
        <time>2024-05-14T14:00:41Z</time>
      </trkpt>
      <trkpt lat="47.30911" lon="-1.10497">
        <ele>88</ele>
        <time>2024-05-14T14:01:38Z</time>
      </trkpt>
      <trkpt lat="47.30893" lon="-1.10504">
        <ele>88</ele>
        <time>2024-05-14T14:02:02Z</time>
      </trkpt>
      <trkpt lat="47.30884" lon="-1.10515">
        <ele>88</ele>
        <time>2024-05-14T14:02:18Z</time>
      </trkpt>
      <trkpt lat="47.30843" lon="-1.1054">
        <ele>88</ele>
        <time>2024-05-14T14:03:17Z</time>
      </trkpt>
      <trkpt lat="47.30818" lon="-1.10564">
        <ele>88</ele>
        <time>2024-05-14T14:03:57Z</time>
      </trkpt>
      <trkpt lat="47.30743" lon="-1.10625">
        <ele>89</ele>
        <time>2024-05-14T14:05:51Z</time>
      </trkpt>
      <trkpt lat="47.30724" lon="-1.10653">
        <ele>90</ele>
        <time>2024-05-14T14:06:27Z</time>
      </trkpt>
      <trkpt lat="47.30697" lon="-1.10682">
        <ele>91</ele>
        <time>2024-05-14T14:07:12Z</time>
      </trkpt>
      <trkpt lat="47.30693" lon="-1.10689">
        <ele>91</ele>
        <time>2024-05-14T14:07:20Z</time>
      </trkpt>
      <trkpt lat="47.30687" lon="-1.1068">
        <ele>91</ele>
        <time>2024-05-14T14:07:31Z</time>
      </trkpt>
      <trkpt lat="47.30673" lon="-1.10637">
        <ele>91</ele>
        <time>2024-05-14T14:08:15Z</time>
      </trkpt>
      <trkpt lat="47.30663" lon="-1.1059">
        <ele>91</ele>
        <time>2024-05-14T14:08:59Z</time>
      </trkpt>
      <trkpt lat="47.3066" lon="-1.10571">
        <ele>91</ele>
        <time>2024-05-14T14:09:17Z</time>
      </trkpt>
      <trkpt lat="47.30662" lon="-1.10518">
        <ele>91</ele>
        <time>2024-05-14T14:10:05Z</time>
      </trkpt>
      <trkpt lat="47.30656" lon="-1.10471">
        <ele>92</ele>
        <time>2024-05-14T14:10:48Z</time>
      </trkpt>
      <trkpt lat="47.30651" lon="-1.10461">
        <ele>92</ele>
        <time>2024-05-14T14:10:59Z</time>
      </trkpt>
      <trkpt lat="47.30633" lon="-1.10441">
        <ele>92</ele>
        <time>2024-05-14T14:11:29Z</time>
      </trkpt>
      <trkpt lat="47.30628" lon="-1.1043">
        <ele>92</ele>
        <time>2024-05-14T14:11:41Z</time>
      </trkpt>
      <trkpt lat="47.30634" lon="-1.10303">
        <ele>93</ele>
        <time>2024-05-14T14:13:37Z</time>
      </trkpt>
      <trkpt lat="47.30641" lon="-1.1026">
        <ele>92</ele>
        <time>2024-05-14T14:14:17Z</time>
      </trkpt>
      <trkpt lat="47.30642" lon="-1.1024">
        <ele>92</ele>
        <time>2024-05-14T14:14:35Z</time>
      </trkpt>
      <trkpt lat="47.30682" lon="-1.10111">
        <ele>92</ele>
        <time>2024-05-14T14:16:43Z</time>
      </trkpt>
      <trkpt lat="47.30691" lon="-1.10072">
        <ele>93</ele>
        <time>2024-05-14T14:17:20Z</time>
      </trkpt>
      <trkpt lat="47.30696" lon="-1.10032">
        <ele>93</ele>
        <time>2024-05-14T14:17:57Z</time>
      </trkpt>
      <trkpt lat="47.30729" lon="-1.09908">
        <ele>95</ele>
        <time>2024-05-14T14:19:58Z</time>
      </trkpt>
      <trkpt lat="47.30744" lon="-1.09859">
        <ele>95</ele>
        <time>2024-05-14T14:20:46Z</time>
      </trkpt>
      <trkpt lat="47.30759" lon="-1.09823">
        <ele>95</ele>
        <time>2024-05-14T14:21:25Z</time>
      </trkpt>
      <trkpt lat="47.30783" lon="-1.09733">
        <ele>95</ele>
        <time>2024-05-14T14:22:52Z</time>
      </trkpt>
      <trkpt lat="47.30792" lon="-1.09714">
        <ele>95</ele>
        <time>2024-05-14T14:23:13Z</time>
      </trkpt>
      <trkpt lat="47.30804" lon="-1.09666">
        <ele>94</ele>
        <time>2024-05-14T14:23:59Z</time>
      </trkpt>
      <trkpt lat="47.30816" lon="-1.09639">
        <ele>94</ele>
        <time>2024-05-14T14:24:29Z</time>
      </trkpt>
      <trkpt lat="47.30843" lon="-1.09542">
        <ele>94</ele>
        <time>2024-05-14T14:26:04Z</time>
      </trkpt>
      <trkpt lat="47.30866" lon="-1.09486">
        <ele>93</ele>
        <time>2024-05-14T14:27:03Z</time>
      </trkpt>
      <trkpt lat="47.30876" lon="-1.09436">
        <ele>93</ele>
        <time>2024-05-14T14:27:50Z</time>
      </trkpt>
      <trkpt lat="47.30893" lon="-1.09276">
        <ele>93</ele>
        <time>2024-05-14T14:30:16Z</time>
      </trkpt>
      <trkpt lat="47.30924" lon="-1.09163">
        <ele>93</ele>
        <time>2024-05-14T14:32:07Z</time>
      </trkpt>
      <trkpt lat="47.30929" lon="-1.09104">
        <ele>93</ele>
        <time>2024-05-14T14:33:01Z</time>
      </trkpt>
      <trkpt lat="47.30925" lon="-1.09102">
        <ele>93</ele>
        <time>2024-05-14T14:33:06Z</time>
      </trkpt>
      <trkpt lat="47.30918" lon="-1.09087">
        <ele>93</ele>
        <time>2024-05-14T14:33:23Z</time>
      </trkpt>
      <trkpt lat="47.30883" lon="-1.09048">
        <ele>92</ele>
        <time>2024-05-14T14:34:21Z</time>
      </trkpt>
      <trkpt lat="47.30852" lon="-1.09006">
        <ele>91</ele>
        <time>2024-05-14T14:35:17Z</time>
      </trkpt>
      <trkpt lat="47.30826" lon="-1.08978">
        <ele>91</ele>
        <time>2024-05-14T14:36:00Z</time>
      </trkpt>
      <trkpt lat="47.308" lon="-1.08928">
        <ele>89</ele>
        <time>2024-05-14T14:36:57Z</time>
      </trkpt>
      <trkpt lat="47.30765" lon="-1.08885">
        <ele>87</ele>
        <time>2024-05-14T14:37:58Z</time>
      </trkpt>
      <trkpt lat="47.30747" lon="-1.08857">
        <ele>86</ele>
        <time>2024-05-14T14:38:33Z</time>
      </trkpt>
      <trkpt lat="47.30704" lon="-1.08803">
        <ele>85</ele>
        <time>2024-05-14T14:39:48Z</time>
      </trkpt>
      <trkpt lat="47.30571" lon="-1.08584">
        <ele>87</ele>
        <time>2024-05-14T14:44:14Z</time>
      </trkpt>
      <trkpt lat="47.30567" lon="-1.08581">
        <ele>87</ele>
        <time>2024-05-14T14:44:20Z</time>
      </trkpt>
      <trkpt lat="47.30559" lon="-1.08582">
        <ele>86</ele>
        <time>2024-05-14T14:44:31Z</time>
      </trkpt>
      <trkpt lat="47.30549" lon="-1.08589">
        <ele>86</ele>
        <time>2024-05-14T14:44:46Z</time>
      </trkpt>
      <trkpt lat="47.3053" lon="-1.08597">
        <ele>85</ele>
        <time>2024-05-14T14:45:12Z</time>
      </trkpt>
      <trkpt lat="47.30513" lon="-1.0861">
        <ele>85</ele>
        <time>2024-05-14T14:45:38Z</time>
      </trkpt>
      <trkpt lat="47.30463" lon="-1.08634">
        <ele>82</ele>
        <time>2024-05-14T14:46:48Z</time>
      </trkpt>
      <trkpt lat="47.30424" lon="-1.0864">
        <ele>80</ele>
        <time>2024-05-14T14:47:40Z</time>
      </trkpt>
      <trkpt lat="47.30382" lon="-1.08631">
        <ele>80</ele>
        <time>2024-05-14T14:48:37Z</time>
      </trkpt>
      <trkpt lat="47.30371" lon="-1.08632">
        <ele>81</ele>
        <time>2024-05-14T14:48:52Z</time>
      </trkpt>
      <trkpt lat="47.30333" lon="-1.08647">
        <ele>81</ele>
        <time>2024-05-14T14:49:44Z</time>
      </trkpt>
      <trkpt lat="47.3032" lon="-1.08649">
        <ele>81</ele>
        <time>2024-05-14T14:50:02Z</time>
      </trkpt>
      <trkpt lat="47.30302" lon="-1.08657">
        <ele>80</ele>
        <time>2024-05-14T14:50:27Z</time>
      </trkpt>
      <trkpt lat="47.30293" lon="-1.08664">
        <ele>80</ele>
        <time>2024-05-14T14:50:40Z</time>
      </trkpt>
      <trkpt lat="47.30256" lon="-1.08673">
        <ele>79</ele>
        <time>2024-05-14T14:51:30Z</time>
      </trkpt>
      <trkpt lat="47.30242" lon="-1.08674">
        <ele>79</ele>
        <time>2024-05-14T14:51:49Z</time>
      </trkpt>
      <trkpt lat="47.30215" lon="-1.08681">
        <ele>78</ele>
        <time>2024-05-14T14:52:26Z</time>
      </trkpt>
      <trkpt lat="47.30165" lon="-1.08685">
        <ele>77</ele>
        <time>2024-05-14T14:53:32Z</time>
      </trkpt>
      <trkpt lat="47.30134" lon="-1.08685">
        <ele>77</ele>
        <time>2024-05-14T14:54:14Z</time>
      </trkpt>
      <trkpt lat="47.30119" lon="-1.0869">
        <ele>77</ele>
        <time>2024-05-14T14:54:34Z</time>
      </trkpt>
      <trkpt lat="47.30051" lon="-1.087">
        <ele>78</ele>
        <time>2024-05-14T14:56:06Z</time>
      </trkpt>
      <trkpt lat="47.30037" lon="-1.08707">
        <ele>78</ele>
        <time>2024-05-14T14:56:25Z</time>
      </trkpt>
      <trkpt lat="47.30034" lon="-1.08712">
        <ele>77</ele>
        <time>2024-05-14T14:56:31Z</time>
      </trkpt>
      <trkpt lat="47.3004" lon="-1.08737">
        <ele>77</ele>
        <time>2024-05-14T14:56:55Z</time>
      </trkpt>
      <trkpt lat="47.3004" lon="-1.08746">
        <ele>76</ele>
        <time>2024-05-14T14:57:03Z</time>
      </trkpt>
      <trkpt lat="47.30034" lon="-1.08753">
        <ele>76</ele>
        <time>2024-05-14T14:57:14Z</time>
      </trkpt>
      <trkpt lat="47.30034" lon="-1.08756">
        <ele>76</ele>
        <time>2024-05-14T14:57:16Z</time>
      </trkpt>
      <trkpt lat="47.30021" lon="-1.08757">
        <ele>76</ele>
        <time>2024-05-14T14:57:34Z</time>
      </trkpt>
      <trkpt lat="47.29981" lon="-1.08744">
        <ele>77</ele>
        <time>2024-05-14T14:58:28Z</time>
      </trkpt>
      <trkpt lat="47.29963" lon="-1.08742">
        <ele>77</ele>
        <time>2024-05-14T14:58:52Z</time>
      </trkpt>
      <trkpt lat="47.29936" lon="-1.08749">
        <ele>77</ele>
        <time>2024-05-14T14:59:29Z</time>
      </trkpt>
      <trkpt lat="47.29917" lon="-1.08758">
        <ele>77</ele>
        <time>2024-05-14T14:59:56Z</time>
      </trkpt>
      <trkpt lat="47.29899" lon="-1.0877">
        <ele>76</ele>
        <time>2024-05-14T15:00:22Z</time>
      </trkpt>
      <trkpt lat="47.29885" lon="-1.08775">
        <ele>75</ele>
        <time>2024-05-14T15:00:41Z</time>
      </trkpt>
      <trkpt lat="47.2986" lon="-1.08781">
        <ele>74</ele>
        <time>2024-05-14T15:01:15Z</time>
      </trkpt>
      <trkpt lat="47.29828" lon="-1.08779">
        <ele>74</ele>
        <time>2024-05-14T15:01:58Z</time>
      </trkpt>
      <trkpt lat="47.29781" lon="-1.088">
        <ele>75</ele>
        <time>2024-05-14T15:03:03Z</time>
      </trkpt>
      <trkpt lat="47.2971" lon="-1.08815">
        <ele>74</ele>
        <time>2024-05-14T15:04:39Z</time>
      </trkpt>
      <trkpt lat="47.29678" lon="-1.08825">
        <ele>73</ele>
        <time>2024-05-14T15:05:23Z</time>
      </trkpt>
      <trkpt lat="47.29664" lon="-1.08821">
        <ele>73</ele>
        <time>2024-05-14T15:05:42Z</time>
      </trkpt>
      <trkpt lat="47.29644" lon="-1.08805">
        <ele>72</ele>
        <time>2024-05-14T15:06:12Z</time>
      </trkpt>
      <trkpt lat="47.29606" lon="-1.08789">
        <ele>69</ele>
        <time>2024-05-14T15:07:05Z</time>
      </trkpt>
      <trkpt lat="47.2959" lon="-1.08785">
        <ele>68</ele>
        <time>2024-05-14T15:07:27Z</time>
      </trkpt>
      <trkpt lat="47.29583" lon="-1.08777">
        <ele>67</ele>
        <time>2024-05-14T15:07:38Z</time>
      </trkpt>
      <trkpt lat="47.29582" lon="-1.08779">
        <ele>67</ele>
        <time>2024-05-14T15:07:41Z</time>
      </trkpt>
      <trkpt lat="47.2958" lon="-1.08773">
        <ele>67</ele>
        <time>2024-05-14T15:07:47Z</time>
      </trkpt>
      <trkpt lat="47.2957" lon="-1.08767">
        <ele>66</ele>
        <time>2024-05-14T15:08:01Z</time>
      </trkpt>
      <trkpt lat="47.29508" lon="-1.08785">
        <ele>61</ele>
        <time>2024-05-14T15:09:25Z</time>
      </trkpt>
      <trkpt lat="47.2949" lon="-1.08785">
        <ele>61</ele>
        <time>2024-05-14T15:09:49Z</time>
      </trkpt>
      <trkpt lat="47.29465" lon="-1.08773">
        <ele>60</ele>
        <time>2024-05-14T15:10:24Z</time>
      </trkpt>
      <trkpt lat="47.29425" lon="-1.08775">
        <ele>60</ele>
        <time>2024-05-14T15:11:18Z</time>
      </trkpt>
      <trkpt lat="47.29372" lon="-1.0876">
        <ele>57</ele>
        <time>2024-05-14T15:12:30Z</time>
      </trkpt>
      <trkpt lat="47.29323" lon="-1.08779">
        <ele>53</ele>
        <time>2024-05-14T15:13:38Z</time>
      </trkpt>
      <trkpt lat="47.29292" lon="-1.08782">
        <ele>48</ele>
        <time>2024-05-14T15:14:19Z</time>
      </trkpt>
      <trkpt lat="47.29268" lon="-1.08781">
        <ele>44</ele>
        <time>2024-05-14T15:14:51Z</time>
      </trkpt>
      <trkpt lat="47.29261" lon="-1.0877">
        <ele>43</ele>
        <time>2024-05-14T15:15:05Z</time>
      </trkpt>
      <trkpt lat="47.29245" lon="-1.08763">
        <ele>42</ele>
        <time>2024-05-14T15:15:27Z</time>
      </trkpt>
      <trkpt lat="47.29239" lon="-1.08749">
        <ele>42</ele>
        <time>2024-05-14T15:15:42Z</time>
      </trkpt>
      <trkpt lat="47.29229" lon="-1.0869">
        <ele>45</ele>
        <time>2024-05-14T15:16:37Z</time>
      </trkpt>
      <trkpt lat="47.29211" lon="-1.08621">
        <ele>44</ele>
        <time>2024-05-14T15:17:44Z</time>
      </trkpt>
      <trkpt lat="47.29205" lon="-1.08587">
        <ele>43</ele>
        <time>2024-05-14T15:18:16Z</time>
      </trkpt>
      <trkpt lat="47.29202" lon="-1.085">
        <ele>39</ele>
        <time>2024-05-14T15:19:35Z</time>
      </trkpt>
      <trkpt lat="47.29198" lon="-1.08492">
        <ele>39</ele>
        <time>2024-05-14T15:19:44Z</time>
      </trkpt>
      <trkpt lat="47.2919" lon="-1.085">
        <ele>38</ele>
        <time>2024-05-14T15:19:56Z</time>
      </trkpt>
      <trkpt lat="47.29185" lon="-1.08516">
        <ele>38</ele>
        <time>2024-05-14T15:20:12Z</time>
      </trkpt>
      <trkpt lat="47.29169" lon="-1.08549">
        <ele>37</ele>
        <time>2024-05-14T15:20:49Z</time>
      </trkpt>
      <trkpt lat="47.29165" lon="-1.08547">
        <ele>37</ele>
        <time>2024-05-14T15:20:55Z</time>
      </trkpt>
      <trkpt lat="47.29158" lon="-1.08531">
        <ele>38</ele>
        <time>2024-05-14T15:21:12Z</time>
      </trkpt>
      <trkpt lat="47.29153" lon="-1.0853">
        <ele>39</ele>
        <time>2024-05-14T15:21:19Z</time>
      </trkpt>
      <trkpt lat="47.29121" lon="-1.08553">
        <ele>45</ele>
        <time>2024-05-14T15:22:06Z</time>
      </trkpt>
      <trkpt lat="47.29108" lon="-1.08558">
        <ele>47</ele>
        <time>2024-05-14T15:22:24Z</time>
      </trkpt>
      <trkpt lat="47.2907" lon="-1.0858">
        <ele>53</ele>
        <time>2024-05-14T15:23:19Z</time>
      </trkpt>
      <trkpt lat="47.2905" lon="-1.08596">
        <ele>57</ele>
        <time>2024-05-14T15:23:49Z</time>
      </trkpt>
      <trkpt lat="47.29032" lon="-1.08605">
        <ele>60</ele>
        <time>2024-05-14T15:24:14Z</time>
      </trkpt>
      <trkpt lat="47.29013" lon="-1.0861">
        <ele>63</ele>
        <time>2024-05-14T15:24:40Z</time>
      </trkpt>
      <trkpt lat="47.29004" lon="-1.08609">
        <ele>65</ele>
        <time>2024-05-14T15:24:52Z</time>
      </trkpt>
      <trkpt lat="47.28993" lon="-1.08603">
        <ele>66</ele>
        <time>2024-05-14T15:25:08Z</time>
      </trkpt>
      <trkpt lat="47.28997" lon="-1.08603">
        <ele>66</ele>
        <time>2024-05-14T15:25:13Z</time>
      </trkpt>
      <trkpt lat="47.28995" lon="-1.08604">
        <ele>66</ele>
        <time>2024-05-14T15:25:16Z</time>
      </trkpt>
      <trkpt lat="47.28999" lon="-1.08604">
        <ele>66</ele>
        <time>2024-05-14T15:25:21Z</time>
      </trkpt>
      <trkpt lat="47.28999" lon="-1.08606">
        <ele>66</ele>
        <time>2024-05-14T15:25:23Z</time>
      </trkpt>
      <trkpt lat="47.28982" lon="-1.08597">
        <ele>67</ele>
        <time>2024-05-14T15:25:47Z</time>
      </trkpt>
      <trkpt lat="47.28973" lon="-1.08595">
        <ele>68</ele>
        <time>2024-05-14T15:25:59Z</time>
      </trkpt>
      <trkpt lat="47.28968" lon="-1.08595">
        <ele>68</ele>
        <time>2024-05-14T15:26:06Z</time>
      </trkpt>
      <trkpt lat="47.28956" lon="-1.08601">
        <ele>69</ele>
        <time>2024-05-14T15:26:23Z</time>
      </trkpt>
      <trkpt lat="47.28937" lon="-1.08589">
        <ele>71</ele>
        <time>2024-05-14T15:26:50Z</time>
      </trkpt>
      <trkpt lat="47.28922" lon="-1.08585">
        <ele>73</ele>
        <time>2024-05-14T15:27:11Z</time>
      </trkpt>
      <trkpt lat="47.28871" lon="-1.08579">
        <ele>74</ele>
        <time>2024-05-14T15:28:19Z</time>
      </trkpt>
      <trkpt lat="47.28856" lon="-1.0858">
        <ele>74</ele>
        <time>2024-05-14T15:28:39Z</time>
      </trkpt>
      <trkpt lat="47.288" lon="-1.08573">
        <ele>76</ele>
        <time>2024-05-14T15:29:54Z</time>
      </trkpt>
      <trkpt lat="47.28747" lon="-1.08571">
        <ele>77</ele>
        <time>2024-05-14T15:31:05Z</time>
      </trkpt>
      <trkpt lat="47.28702" lon="-1.08581">
        <ele>75</ele>
        <time>2024-05-14T15:32:06Z</time>
      </trkpt>
      <trkpt lat="47.2869" lon="-1.08573">
        <ele>75</ele>
        <time>2024-05-14T15:32:23Z</time>
      </trkpt>
      <trkpt lat="47.28673" lon="-1.08553">
        <ele>75</ele>
        <time>2024-05-14T15:32:52Z</time>
      </trkpt>
      <trkpt lat="47.28654" lon="-1.08537">
        <ele>76</ele>
        <time>2024-05-14T15:33:21Z</time>
      </trkpt>
      <trkpt lat="47.28577" lon="-1.08485">
        <ele>77</ele>
        <time>2024-05-14T15:35:14Z</time>
      </trkpt>
      <trkpt lat="47.28556" lon="-1.08468">
        <ele>78</ele>
        <time>2024-05-14T15:35:46Z</time>
      </trkpt>
      <trkpt lat="47.28533" lon="-1.08455">
        <ele>78</ele>
        <time>2024-05-14T15:36:19Z</time>
      </trkpt>
      <trkpt lat="47.28511" lon="-1.08434">
        <ele>78</ele>
        <time>2024-05-14T15:36:54Z</time>
      </trkpt>
      <trkpt lat="47.285" lon="-1.08417">
        <ele>79</ele>
        <time>2024-05-14T15:37:16Z</time>
      </trkpt>
      <trkpt lat="47.285" lon="-1.08392">
        <ele>79</ele>
        <time>2024-05-14T15:37:38Z</time>
      </trkpt>
      <trkpt lat="47.28507" lon="-1.08346">
        <ele>80</ele>
        <time>2024-05-14T15:38:21Z</time>
      </trkpt>
      <trkpt lat="47.28529" lon="-1.08258">
        <ele>81</ele>
        <time>2024-05-14T15:39:46Z</time>
      </trkpt>
      <trkpt lat="47.28534" lon="-1.08248">
        <ele>81</ele>
        <time>2024-05-14T15:39:57Z</time>
      </trkpt>
      <trkpt lat="47.28537" lon="-1.08216">
        <ele>82</ele>
        <time>2024-05-14T15:40:26Z</time>
      </trkpt>
      <trkpt lat="47.28531" lon="-1.08166">
        <ele>83</ele>
        <time>2024-05-14T15:41:12Z</time>
      </trkpt>
      <trkpt lat="47.28527" lon="-1.08102">
        <ele>83</ele>
        <time>2024-05-14T15:42:10Z</time>
      </trkpt>
      <trkpt lat="47.28518" lon="-1.08065">
        <ele>83</ele>
        <time>2024-05-14T15:42:46Z</time>
      </trkpt>
      <trkpt lat="47.28509" lon="-1.08011">
        <ele>84</ele>
        <time>2024-05-14T15:43:36Z</time>
      </trkpt>
      <trkpt lat="47.28501" lon="-1.07983">
        <ele>84</ele>
        <time>2024-05-14T15:44:04Z</time>
      </trkpt>
      <trkpt lat="47.285" lon="-1.07965">
        <ele>84</ele>
        <time>2024-05-14T15:44:20Z</time>
      </trkpt>
      <trkpt lat="47.28503" lon="-1.0795">
        <ele>84</ele>
        <time>2024-05-14T15:44:34Z</time>
      </trkpt>
      <trkpt lat="47.28511" lon="-1.07818">
        <ele>83</ele>
        <time>2024-05-14T15:46:34Z</time>
      </trkpt>
      <trkpt lat="47.28512" lon="-1.07743">
        <ele>82</ele>
        <time>2024-05-14T15:47:42Z</time>
      </trkpt>
      <trkpt lat="47.2851" lon="-1.07719">
        <ele>81</ele>
        <time>2024-05-14T15:48:04Z</time>
      </trkpt>
      <trkpt lat="47.28513" lon="-1.07665">
        <ele>80</ele>
        <time>2024-05-14T15:48:53Z</time>
      </trkpt>
      <trkpt lat="47.28512" lon="-1.07638">
        <ele>79</ele>
        <time>2024-05-14T15:49:18Z</time>
      </trkpt>
      <trkpt lat="47.28515" lon="-1.07634">
        <ele>79</ele>
        <time>2024-05-14T15:49:23Z</time>
      </trkpt>
      <trkpt lat="47.28539" lon="-1.07635">
        <ele>78</ele>
        <time>2024-05-14T15:49:55Z</time>
      </trkpt>
      <trkpt lat="47.28543" lon="-1.07631">
        <ele>78</ele>
        <time>2024-05-14T15:50:01Z</time>
      </trkpt>
      <trkpt lat="47.28587" lon="-1.07613">
        <ele>75</ele>
        <time>2024-05-14T15:51:02Z</time>
      </trkpt>
      <trkpt lat="47.28623" lon="-1.07584">
        <ele>73</ele>
        <time>2024-05-14T15:51:57Z</time>
      </trkpt>
      <trkpt lat="47.28632" lon="-1.07573">
        <ele>73</ele>
        <time>2024-05-14T15:52:13Z</time>
      </trkpt>
      <trkpt lat="47.28651" lon="-1.07527">
        <ele>71</ele>
        <time>2024-05-14T15:53:01Z</time>
      </trkpt>
      <trkpt lat="47.28679" lon="-1.07504">
        <ele>70</ele>
        <time>2024-05-14T15:53:44Z</time>
      </trkpt>
      <trkpt lat="47.28679" lon="-1.07501">
        <ele>70</ele>
        <time>2024-05-14T15:53:47Z</time>
      </trkpt>
      <trkpt lat="47.28684" lon="-1.07499">
        <ele>70</ele>
        <time>2024-05-14T15:53:54Z</time>
      </trkpt>
      <trkpt lat="47.28684" lon="-1.07496">
        <ele>70</ele>
        <time>2024-05-14T15:53:57Z</time>
      </trkpt>
      <trkpt lat="47.28684" lon="-1.07499">
        <ele>70</ele>
        <time>2024-05-14T15:53:59Z</time>
      </trkpt>
      <trkpt lat="47.28681" lon="-1.07497">
        <ele>70</ele>
        <time>2024-05-14T15:54:04Z</time>
      </trkpt>
      <trkpt lat="47.28677" lon="-1.07498">
        <ele>70</ele>
        <time>2024-05-14T15:54:09Z</time>
      </trkpt>
      <trkpt lat="47.28676" lon="-1.07503">
        <ele>70</ele>
        <time>2024-05-14T15:54:14Z</time>
      </trkpt>
      <trkpt lat="47.28672" lon="-1.07505">
        <ele>70</ele>
        <time>2024-05-14T15:54:19Z</time>
      </trkpt>
      <trkpt lat="47.28709" lon="-1.07458">
        <ele>68</ele>
        <time>2024-05-14T15:55:25Z</time>
      </trkpt>
      <trkpt lat="47.28735" lon="-1.07406">
        <ele>65</ele>
        <time>2024-05-14T15:56:23Z</time>
      </trkpt>
      <trkpt lat="47.28774" lon="-1.07371">
        <ele>63</ele>
        <time>2024-05-14T15:57:24Z</time>
      </trkpt>
      <trkpt lat="47.28781" lon="-1.07369">
        <ele>63</ele>
        <time>2024-05-14T15:57:34Z</time>
      </trkpt>
      <trkpt lat="47.28798" lon="-1.07357">
        <ele>62</ele>
        <time>2024-05-14T15:57:59Z</time>
      </trkpt>
      <trkpt lat="47.28827" lon="-1.07347">
        <ele>62</ele>
        <time>2024-05-14T15:58:38Z</time>
      </trkpt>
      <trkpt lat="47.28843" lon="-1.07337">
        <ele>62</ele>
        <time>2024-05-14T15:59:02Z</time>
      </trkpt>
      <trkpt lat="47.28879" lon="-1.07331">
        <ele>65</ele>
        <time>2024-05-14T15:59:50Z</time>
      </trkpt>
      <trkpt lat="47.28934" lon="-1.07316">
        <ele>68</ele>
        <time>2024-05-14T16:01:05Z</time>
      </trkpt>
      <trkpt lat="47.28959" lon="-1.07312">
        <ele>68</ele>
        <time>2024-05-14T16:01:38Z</time>
      </trkpt>
      <trkpt lat="47.28973" lon="-1.07305">
        <ele>68</ele>
        <time>2024-05-14T16:01:58Z</time>
      </trkpt>
      <trkpt lat="47.28988" lon="-1.07286">
        <ele>68</ele>
        <time>2024-05-14T16:02:24Z</time>
      </trkpt>
      <trkpt lat="47.2902" lon="-1.07264">
        <ele>67</ele>
        <time>2024-05-14T16:03:11Z</time>
      </trkpt>
      <trkpt lat="47.29039" lon="-1.07247">
        <ele>67</ele>
        <time>2024-05-14T16:03:41Z</time>
      </trkpt>
      <trkpt lat="47.29077" lon="-1.07225">
        <ele>67</ele>
        <time>2024-05-14T16:04:36Z</time>
      </trkpt>
      <trkpt lat="47.2909" lon="-1.07224">
        <ele>67</ele>
        <time>2024-05-14T16:04:53Z</time>
      </trkpt>
      <trkpt lat="47.29125" lon="-1.07233">
        <ele>65</ele>
        <time>2024-05-14T16:05:40Z</time>
      </trkpt>
      <trkpt lat="47.29144" lon="-1.07243">
        <ele>64</ele>
        <time>2024-05-14T16:06:07Z</time>
      </trkpt>
      <trkpt lat="47.29176" lon="-1.07255">
        <ele>61</ele>
        <time>2024-05-14T16:06:51Z</time>
      </trkpt>
      <trkpt lat="47.29237" lon="-1.07273">
        <ele>56</ele>
        <time>2024-05-14T16:08:14Z</time>
      </trkpt>
      <trkpt lat="47.2927" lon="-1.0728">
        <ele>53</ele>
        <time>2024-05-14T16:08:59Z</time>
      </trkpt>
      <trkpt lat="47.29285" lon="-1.07277">
        <ele>51</ele>
        <time>2024-05-14T16:09:19Z</time>
      </trkpt>
      <trkpt lat="47.29324" lon="-1.07197">
        <ele>49</ele>
        <time>2024-05-14T16:10:48Z</time>
      </trkpt>
      <trkpt lat="47.29339" lon="-1.0713">
        <ele>49</ele>
        <time>2024-05-14T16:11:52Z</time>
      </trkpt>
      <trkpt lat="47.29343" lon="-1.07096">
        <ele>49</ele>
        <time>2024-05-14T16:12:23Z</time>
      </trkpt>
      <trkpt lat="47.29343" lon="-1.07072">
        <ele>49</ele>
        <time>2024-05-14T16:12:45Z</time>
      </trkpt>
      <trkpt lat="47.29375" lon="-1.06965">
        <ele>49</ele>
        <time>2024-05-14T16:14:31Z</time>
      </trkpt>
      <trkpt lat="47.29397" lon="-1.06915">
        <ele>49</ele>
        <time>2024-05-14T16:15:25Z</time>
      </trkpt>
      <trkpt lat="47.29412" lon="-1.06862">
        <ele>48</ele>
        <time>2024-05-14T16:16:17Z</time>
      </trkpt>
      <trkpt lat="47.29436" lon="-1.06853">
        <ele>47</ele>
        <time>2024-05-14T16:16:50Z</time>
      </trkpt>
      <trkpt lat="47.29449" lon="-1.06844">
        <ele>46</ele>
        <time>2024-05-14T16:17:09Z</time>
      </trkpt>
      <trkpt lat="47.29462" lon="-1.06829">
        <ele>45</ele>
        <time>2024-05-14T16:17:31Z</time>
      </trkpt>
      <trkpt lat="47.29481" lon="-1.06785">
        <ele>44</ele>
        <time>2024-05-14T16:18:18Z</time>
      </trkpt>
      <trkpt lat="47.29494" lon="-1.06765">
        <ele>44</ele>
        <time>2024-05-14T16:18:43Z</time>
      </trkpt>
      <trkpt lat="47.2951" lon="-1.06757">
        <ele>43</ele>
        <time>2024-05-14T16:19:06Z</time>
      </trkpt>
      <trkpt lat="47.29522" lon="-1.06746">
        <ele>42</ele>
        <time>2024-05-14T16:19:25Z</time>
      </trkpt>
      <trkpt lat="47.29537" lon="-1.06726">
        <ele>39</ele>
        <time>2024-05-14T16:19:52Z</time>
      </trkpt>
      <trkpt lat="47.29549" lon="-1.06719">
        <ele>38</ele>
        <time>2024-05-14T16:20:09Z</time>
      </trkpt>
      <trkpt lat="47.29557" lon="-1.0672">
        <ele>38</ele>
        <time>2024-05-14T16:20:20Z</time>
      </trkpt>
      <trkpt lat="47.29562" lon="-1.06725">
        <ele>37</ele>
        <time>2024-05-14T16:20:28Z</time>
      </trkpt>
      <trkpt lat="47.29569" lon="-1.06733">
        <ele>37</ele>
        <time>2024-05-14T16:20:40Z</time>
      </trkpt>
      <trkpt lat="47.29577" lon="-1.0675">
        <ele>37</ele>
        <time>2024-05-14T16:20:58Z</time>
      </trkpt>
      <trkpt lat="47.29594" lon="-1.06795">
        <ele>32</ele>
        <time>2024-05-14T16:21:45Z</time>
      </trkpt>
      <trkpt lat="47.29595" lon="-1.06806">
        <ele>31</ele>
        <time>2024-05-14T16:21:55Z</time>
      </trkpt>
      <trkpt lat="47.29606" lon="-1.06845">
        <ele>28</ele>
        <time>2024-05-14T16:22:33Z</time>
      </trkpt>
      <trkpt lat="47.29614" lon="-1.06859">
        <ele>27</ele>
        <time>2024-05-14T16:22:50Z</time>
      </trkpt>
      <trkpt lat="47.29616" lon="-1.06857">
        <ele>27</ele>
        <time>2024-05-14T16:22:53Z</time>
      </trkpt>
      <trkpt lat="47.29617" lon="-1.06862">
        <ele>27</ele>
        <time>2024-05-14T16:22:58Z</time>
      </trkpt>
      <trkpt lat="47.29624" lon="-1.06868">
        <ele>26</ele>
        <time>2024-05-14T16:23:08Z</time>
      </trkpt>
      <trkpt lat="47.29633" lon="-1.06871">
        <ele>26</ele>
        <time>2024-05-14T16:23:21Z</time>
      </trkpt>
      <trkpt lat="47.29639" lon="-1.06878">
        <ele>25</ele>
        <time>2024-05-14T16:23:31Z</time>
      </trkpt>
      <trkpt lat="47.29665" lon="-1.06892">
        <ele>24</ele>
        <time>2024-05-14T16:24:08Z</time>
      </trkpt>
      <trkpt lat="47.29686" lon="-1.06907">
        <ele>25</ele>
        <time>2024-05-14T16:24:39Z</time>
      </trkpt>
      <trkpt lat="47.29706" lon="-1.06932">
        <ele>27</ele>
        <time>2024-05-14T16:25:14Z</time>
      </trkpt>
      <trkpt lat="47.29718" lon="-1.06959">
        <ele>30</ele>
        <time>2024-05-14T16:25:43Z</time>
      </trkpt>
      <trkpt lat="47.29723" lon="-1.06978">
        <ele>31</ele>
        <time>2024-05-14T16:26:02Z</time>
      </trkpt>
      <trkpt lat="47.29742" lon="-1.07025">
        <ele>35</ele>
        <time>2024-05-14T16:26:51Z</time>
      </trkpt>
      <trkpt lat="47.29751" lon="-1.07114">
        <ele>39</ele>
        <time>2024-05-14T16:28:13Z</time>
      </trkpt>
      <trkpt lat="47.29788" lon="-1.07292">
        <ele>44</ele>
        <time>2024-05-14T16:31:01Z</time>
      </trkpt>
      <trkpt lat="47.29812" lon="-1.07348">
        <ele>46</ele>
        <time>2024-05-14T16:32:01Z</time>
      </trkpt>
      <trkpt lat="47.29816" lon="-1.07367">
        <ele>47</ele>
        <time>2024-05-14T16:32:19Z</time>
      </trkpt>
      <trkpt lat="47.29829" lon="-1.07401">
        <ele>50</ele>
        <time>2024-05-14T16:32:54Z</time>
      </trkpt>
      <trkpt lat="47.2984" lon="-1.07418">
        <ele>52</ele>
        <time>2024-05-14T16:33:16Z</time>
      </trkpt>
      <trkpt lat="47.29857" lon="-1.07431">
        <ele>53</ele>
        <time>2024-05-14T16:33:41Z</time>
      </trkpt>
      <trkpt lat="47.29877" lon="-1.07457">
        <ele>56</ele>
        <time>2024-05-14T16:34:17Z</time>
      </trkpt>
      <trkpt lat="47.29922" lon="-1.07544">
        <ele>63</ele>
        <time>2024-05-14T16:35:56Z</time>
      </trkpt>
      <trkpt lat="47.29938" lon="-1.07578">
        <ele>67</ele>
        <time>2024-05-14T16:36:33Z</time>
      </trkpt>
      <trkpt lat="47.29949" lon="-1.07609">
        <ele>69</ele>
        <time>2024-05-14T16:37:05Z</time>
      </trkpt>
      <trkpt lat="47.29953" lon="-1.07633">
        <ele>71</ele>
        <time>2024-05-14T16:37:27Z</time>
      </trkpt>
      <trkpt lat="47.29951" lon="-1.07675">
        <ele>73</ele>
        <time>2024-05-14T16:38:05Z</time>
      </trkpt>
      <trkpt lat="47.29935" lon="-1.07775">
        <ele>74</ele>
        <time>2024-05-14T16:39:38Z</time>
      </trkpt>
      <trkpt lat="47.29939" lon="-1.0777">
        <ele>74</ele>
        <time>2024-05-14T16:39:45Z</time>
      </trkpt>
      <trkpt lat="47.29976" lon="-1.0777">
        <ele>75</ele>
        <time>2024-05-14T16:40:35Z</time>
      </trkpt>
      <trkpt lat="47.29998" lon="-1.07776">
        <ele>75</ele>
        <time>2024-05-14T16:41:05Z</time>
      </trkpt>
      <trkpt lat="47.30002" lon="-1.07779">
        <ele>75</ele>
        <time>2024-05-14T16:41:11Z</time>
      </trkpt>
      <trkpt lat="47.30039" lon="-1.0786">
        <ele>76</ele>
        <time>2024-05-14T16:42:39Z</time>
      </trkpt>
      <trkpt lat="47.3005" lon="-1.07897">
        <ele>76</ele>
        <time>2024-05-14T16:43:16Z</time>
      </trkpt>
      <trkpt lat="47.30057" lon="-1.0791">
        <ele>76</ele>
        <time>2024-05-14T16:43:31Z</time>
      </trkpt>
      <trkpt lat="47.30067" lon="-1.0792">
        <ele>77</ele>
        <time>2024-05-14T16:43:47Z</time>
      </trkpt>
      <trkpt lat="47.30095" lon="-1.07934">
        <ele>77</ele>
        <time>2024-05-14T16:44:26Z</time>
      </trkpt>
      <trkpt lat="47.30105" lon="-1.07959">
        <ele>77</ele>
        <time>2024-05-14T16:44:52Z</time>
      </trkpt>
      <trkpt lat="47.30104" lon="-1.07969">
        <ele>77</ele>
        <time>2024-05-14T16:45:02Z</time>
      </trkpt>
    </trkseg>
  </trk>
</gpx>